createdAt,value
2023-04-16T00:02:27.953Z,101494.09
2023-04-16T00:05:30.743Z,101490.53
2023-04-16T00:08:35.597Z,101491.22
2023-04-16T00:11:38.281Z,101487.66
2023-04-16T00:14:40.911Z,101480.94
2023-04-16T00:17:43.660Z,101495.78
2023-04-16T00:20:46.393Z,101485.81
2023-04-16T00:23:50.630Z,101484.13
2023-04-16T00:26:53.300Z,101484.34
2023-04-16T00:29:55.955Z,101498.34
2023-04-16T00:32:58.653Z,101494.16
2023-04-16T00:36:01.315Z,101503.44
2023-04-16T00:39:05.677Z,101499.09
2023-04-16T00:42:08.296Z,101489.38
2023-04-16T00:45:12.503Z,101501.59
2023-04-16T00:48:15.168Z,101497.72
2023-04-16T00:51:19.997Z,101501.06
2023-04-16T00:54:24.133Z,101492.66
2023-04-16T00:57:27.039Z,101486.53
2023-04-16T01:00:29.682Z,101488.28
2023-04-16T01:03:39.439Z,101482.13
2023-04-16T01:06:42.324Z,101488.03
2023-04-16T01:09:46.393Z,101489.38
2023-04-16T01:12:49.056Z,101486.44
2023-04-16T01:15:51.697Z,101489.91
2023-04-16T01:18:54.381Z,101501.09
2023-04-16T01:21:58.443Z,101487.38
2023-04-16T01:25:01.054Z,101492.88
2023-04-16T01:28:03.786Z,101492.47
2023-04-16T01:31:06.548Z,101497.81
2023-04-16T01:34:09.210Z,101500.16
2023-04-16T01:37:13.731Z,101511.94
2023-04-16T01:40:16.394Z,101514.47
2023-04-16T01:43:19.064Z,101510.59
2023-04-16T01:46:26.533Z,101515.75
2023-04-16T01:49:30.098Z,101517.63
2023-04-16T01:52:34.166Z,101515.00
2023-04-16T01:55:36.872Z,101517.44
2023-04-16T01:58:39.750Z,101519.34
2023-04-16T02:01:43.294Z,101524.56
2023-04-16T02:04:47.287Z,101520.84
2023-04-16T02:07:51.280Z,101530.34
2023-04-16T02:10:54.520Z,101529.84
2023-04-16T02:13:57.136Z,101529.72
2023-04-16T02:17:00.288Z,101532.59
2023-04-16T02:20:05.617Z,101529.88
2023-04-16T02:23:09.720Z,101533.16
2023-04-16T02:26:13.469Z,101530.19
2023-04-16T02:29:16.527Z,101536.41
2023-04-16T02:32:19.440Z,101535.78
2023-04-16T02:35:22.256Z,101545.75
2023-04-16T02:38:26.251Z,101543.94
2023-04-16T02:41:28.884Z,101547.22
2023-04-16T02:44:31.515Z,101547.13
2023-04-16T02:47:34.223Z,101549.66
2023-04-16T02:50:36.924Z,101548.78
2023-04-16T02:53:41.475Z,101550.75
2023-04-16T02:56:44.117Z,101547.75
2023-04-16T02:59:46.745Z,101550.50
2023-04-16T03:02:49.486Z,101550.50
2023-04-16T03:05:52.207Z,101552.34
2023-04-16T03:08:56.243Z,101559.34
2023-04-16T03:11:58.890Z,101560.19
2023-04-16T03:15:01.647Z,101557.53
2023-04-16T03:18:04.357Z,101559.19
2023-04-16T03:21:07.219Z,101560.97
2023-04-16T03:24:11.420Z,101559.03
2023-04-16T03:27:14.075Z,101559.16
2023-04-16T03:30:17.289Z,101561.97
2023-04-16T03:33:19.925Z,101567.84
2023-04-16T03:36:22.830Z,101570.88
2023-04-16T03:39:26.850Z,101558.81
2023-04-16T03:42:29.503Z,101562.06
2023-04-16T03:45:32.184Z,101563.66
2023-04-16T03:48:34.841Z,101573.53
2023-04-16T03:51:37.461Z,101576.28
2023-04-16T03:54:41.461Z,101567.69
2023-04-16T03:57:44.207Z,101570.13
2023-04-16T04:00:46.913Z,101574.38
2023-04-16T04:03:49.763Z,101575.41
2023-04-16T04:06:52.580Z,101573.56
2023-04-16T04:09:56.556Z,101577.00
2023-04-16T04:12:59.245Z,101568.03
2023-04-16T04:16:01.919Z,101573.91
2023-04-16T04:19:04.700Z,101580.00
2023-04-16T04:22:07.374Z,101587.97
2023-04-16T04:25:11.871Z,101586.91
2023-04-16T04:28:14.503Z,101593.47
2023-04-16T04:31:17.203Z,101581.84
2023-04-16T04:34:20.104Z,101602.75
2023-04-16T04:37:22.781Z,101596.63
2023-04-16T04:40:26.820Z,101603.97
2023-04-16T04:43:29.522Z,101603.81
2023-04-16T04:46:32.167Z,101601.91
2023-04-16T04:49:34.847Z,101593.56
2023-04-16T04:52:37.474Z,101600.31
2023-04-16T04:55:41.490Z,101605.84
2023-04-16T04:58:44.181Z,101609.44
2023-04-16T05:01:46.841Z,101617.25
2023-04-16T05:04:49.523Z,101613.38
2023-04-16T05:07:52.160Z,101616.03
2023-04-16T05:10:56.212Z,101616.00
2023-04-16T05:13:58.844Z,101622.41
2023-04-16T05:17:01.930Z,101616.81
2023-04-16T05:20:05.147Z,101619.16
2023-04-16T05:23:07.798Z,101624.75
2023-04-16T05:26:11.804Z,101622.09
2023-04-16T05:29:14.443Z,101629.91
2023-04-16T05:32:17.144Z,101636.84
2023-04-16T05:35:19.931Z,101641.16
2023-04-16T05:38:22.860Z,101637.97
2023-04-16T05:41:26.906Z,101640.34
2023-04-16T05:44:29.573Z,101644.22
2023-04-16T05:47:32.303Z,101660.69
2023-04-16T05:50:34.967Z,101651.16
2023-04-16T05:53:37.606Z,101654.22
2023-04-16T05:56:41.709Z,101658.50
2023-04-16T05:59:44.301Z,101667.25
2023-04-16T06:02:47.191Z,101664.97
2023-04-16T06:05:49.930Z,101667.38
2023-04-16T06:08:52.578Z,101671.63
2023-04-16T06:11:56.588Z,101661.72
2023-04-16T06:14:59.228Z,101669.66
2023-04-16T06:18:01.969Z,101672.69
2023-04-16T06:21:05.413Z,101667.88
2023-04-16T06:24:08.161Z,101670.47
2023-04-16T06:27:12.144Z,101673.34
2023-04-16T06:30:15.853Z,101676.25
2023-04-16T06:33:18.580Z,101686.06
2023-04-16T06:36:21.206Z,101679.72
2023-04-16T06:39:23.888Z,101683.69
2023-04-16T06:42:28.091Z,101680.53
2023-04-16T06:45:30.735Z,101689.38
2023-04-16T06:48:33.407Z,101699.69
2023-04-16T06:51:36.086Z,101693.44
2023-04-16T06:54:38.806Z,101694.03
2023-04-16T06:57:42.858Z,101700.22
2023-04-16T07:00:46.174Z,101695.03
2023-04-16T07:03:49.181Z,101699.25
2023-04-16T07:06:51.980Z,101696.50
2023-04-16T07:09:54.671Z,101701.81
2023-04-16T07:12:58.829Z,101697.13
2023-04-16T07:16:01.566Z,101696.38
2023-04-16T07:19:04.348Z,101701.69
2023-04-16T07:22:07.087Z,101705.94
2023-04-16T07:25:10.371Z,101705.13
2023-04-16T07:28:16.519Z,101709.59
2023-04-16T07:31:19.574Z,101719.34
2023-04-16T07:34:22.614Z,101722.81
2023-04-16T07:37:25.396Z,101726.84
2023-04-16T07:40:28.063Z,101727.66
2023-04-16T07:43:32.117Z,101723.59
2023-04-16T07:46:43.564Z,101736.56
2023-04-16T07:49:49.530Z,101734.09
2023-04-16T07:52:52.265Z,101735.94
2023-04-16T07:55:54.935Z,101740.59
2023-04-16T07:59:07.974Z,101739.31
2023-04-16T08:02:17.670Z,101744.41
2023-04-16T08:05:20.727Z,101741.25
2023-04-16T08:08:23.580Z,101740.31
2023-04-16T08:11:26.250Z,101746.59
2023-04-16T08:14:30.800Z,101749.16
2023-04-16T08:17:34.428Z,101743.94
2023-04-16T08:20:37.078Z,101756.28
2023-04-16T08:23:39.768Z,101753.00
2023-04-16T08:26:42.412Z,101760.00
2023-04-16T08:29:46.481Z,101770.81
2023-04-16T08:32:50.303Z,101776.88
2023-04-16T08:35:53.214Z,101777.25
2023-04-16T08:38:55.886Z,101778.13
2023-04-16T08:41:59.606Z,101782.25
2023-04-16T08:45:08.739Z,101787.19
2023-04-16T08:48:12.956Z,101782.28
2023-04-16T08:51:18.282Z,101786.56
2023-04-16T08:54:37.379Z,101787.41
2023-04-16T08:57:49.691Z,101791.88
2023-04-16T09:00:54.621Z,101793.50
2023-04-16T09:03:57.560Z,101791.81
2023-04-16T09:07:00.372Z,101792.72
2023-04-16T09:10:04.079Z,101790.63
2023-04-16T09:13:08.248Z,101796.91
2023-04-16T09:16:13.827Z,101800.03
2023-04-16T09:19:17.002Z,101804.31
2023-04-16T09:22:19.649Z,101801.00
2023-04-16T09:25:23.209Z,101808.91
2023-04-16T09:28:42.484Z,101814.00
2023-04-16T09:32:03.035Z,101818.66
2023-04-16T09:35:06.336Z,101821.22
2023-04-16T09:38:09.049Z,101824.34
2023-04-16T09:41:11.698Z,101823.47
2023-04-16T09:44:14.355Z,101823.75
2023-04-16T09:47:18.674Z,101830.00
2023-04-16T09:50:21.549Z,101828.66
2023-04-16T09:53:28.408Z,101839.41
2023-04-16T09:56:31.667Z,101841.34
2023-04-16T09:59:36.790Z,101838.03
2023-04-16T10:02:42.880Z,101838.44
2023-04-16T10:05:45.934Z,101844.94
2023-04-16T10:08:50.158Z,101841.44
2023-04-16T10:11:53.284Z,101843.13
2023-04-16T10:14:56.004Z,101848.59
2023-04-16T10:18:00.419Z,101855.13
2023-04-16T10:21:03.791Z,101848.75
2023-04-16T10:24:08.132Z,101851.47
2023-04-16T10:27:10.838Z,101855.13
2023-04-16T10:30:16.510Z,101856.28
2023-04-16T10:33:21.841Z,101855.22
2023-04-16T10:36:26.353Z,101860.56
2023-04-16T10:39:29.892Z,101866.91
2023-04-16T10:42:32.600Z,101866.69
2023-04-16T10:45:39.132Z,101860.00
2023-04-16T10:48:49.872Z,101864.19
2023-04-16T10:51:55.267Z,101873.16
2023-04-16T10:55:01.180Z,101873.81
2023-04-16T10:58:03.861Z,101876.56
2023-04-16T11:01:08.997Z,101875.88
2023-04-16T11:04:47.150Z,101882.94
2023-04-16T11:07:50.104Z,101879.69
2023-04-16T11:10:53.054Z,101884.72
2023-04-16T11:13:56.966Z,101882.13
2023-04-16T11:16:59.826Z,101887.66
2023-04-16T11:20:04.936Z,101883.53
2023-04-16T11:23:21.709Z,101885.38
2023-04-16T11:26:25.977Z,101880.22
2023-04-16T11:29:28.673Z,101890.88
2023-04-16T11:32:33.216Z,101885.97
2023-04-16T11:35:37.296Z,101885.97
2023-04-16T11:38:42.834Z,101887.34
2023-04-16T11:41:46.111Z,101891.41
2023-04-16T11:44:53.335Z,101887.09
2023-04-16T11:47:57.757Z,101888.59
2023-04-16T11:51:01.830Z,101887.06
2023-04-16T11:54:04.764Z,101892.41
2023-04-16T11:57:07.455Z,101895.41
2023-04-16T12:00:14.005Z,101897.88
2023-04-16T12:03:16.972Z,101898.94
2023-04-16T12:06:22.248Z,101897.31
2023-04-16T12:09:27.499Z,101900.06
2023-04-16T12:12:32.547Z,101902.38
2023-04-16T12:15:45.016Z,101903.63
2023-04-16T12:19:01.122Z,101916.59
2023-04-16T12:22:05.466Z,101908.00
2023-04-16T12:25:11.697Z,101910.03
2023-04-16T12:28:16.437Z,101911.94
2023-04-16T12:31:20.286Z,101911.81
2023-04-16T12:34:28.953Z,101915.81
2023-04-16T12:37:47.876Z,101913.34
2023-04-16T12:40:50.670Z,101919.19
2023-04-16T12:43:53.937Z,101915.00
2023-04-16T12:46:56.575Z,101914.84
2023-04-16T12:49:59.440Z,101918.66
2023-04-16T12:53:03.488Z,101921.25
2023-04-16T12:56:06.346Z,101927.31
2023-04-16T12:59:10.303Z,101924.06
2023-04-16T13:02:13.421Z,101924.94
2023-04-16T13:05:18.993Z,101930.75
2023-04-16T13:08:23.148Z,101931.69
2023-04-16T13:11:26.030Z,101928.38
2023-04-16T13:14:28.666Z,101936.81
2023-04-16T13:17:31.343Z,101937.75
2023-04-16T13:20:34.506Z,101930.75
2023-04-16T13:23:38.573Z,101927.47
2023-04-16T13:26:42.381Z,101937.75
2023-04-16T13:29:45.033Z,101931.63
2023-04-16T13:32:47.835Z,101934.00
2023-04-16T13:35:51.066Z,101930.81
2023-04-16T13:38:54.988Z,101945.31
2023-04-16T13:41:57.641Z,101942.66
2023-04-16T13:45:01.141Z,101943.06
2023-04-16T13:48:03.977Z,101944.34
2023-04-16T13:51:08.198Z,101944.63
2023-04-16T13:54:12.229Z,101937.63
2023-04-16T13:57:14.896Z,101935.72
2023-04-16T14:00:18.676Z,101937.16
2023-04-16T14:03:21.651Z,101936.22
2023-04-16T14:06:24.405Z,101932.81
2023-04-16T14:09:28.402Z,101934.94
2023-04-16T14:12:31.541Z,101922.56
2023-04-16T14:15:34.199Z,101931.25
2023-04-16T14:18:40.982Z,101931.78
2023-04-16T14:21:43.676Z,101929.06
2023-04-16T14:24:47.729Z,101933.44
2023-04-16T14:27:51.154Z,101937.72
2023-04-16T14:30:53.784Z,101937.66
2023-04-16T14:33:56.366Z,101931.34
2023-04-16T14:36:59.111Z,101936.56
2023-04-16T14:40:04.917Z,101935.50
2023-04-16T14:43:07.562Z,101941.88
2023-04-16T14:46:10.394Z,101945.19
2023-04-16T14:49:14.267Z,101945.59
2023-04-16T14:52:17.378Z,101945.72
2023-04-16T14:55:21.541Z,101938.47
2023-04-16T14:58:24.213Z,101946.56
2023-04-16T15:01:27.053Z,101946.91
2023-04-16T15:04:30.925Z,101943.56
2023-04-16T15:07:33.615Z,101941.63
2023-04-16T15:10:38.018Z,101952.63
2023-04-16T15:13:40.640Z,101947.94
2023-04-16T15:16:43.398Z,101948.66
2023-04-16T15:19:46.160Z,101945.81
2023-04-16T15:22:48.827Z,101949.13
2023-04-16T15:25:52.870Z,101949.63
2023-04-16T15:28:55.554Z,101946.88
2023-04-16T15:31:58.241Z,101952.28
2023-04-16T15:35:00.935Z,101952.50
2023-04-16T15:38:03.590Z,101955.66
2023-04-16T15:41:07.674Z,101959.94
2023-04-16T15:44:10.404Z,101965.00
2023-04-16T15:47:13.049Z,101961.59
2023-04-16T15:50:15.951Z,101962.53
2023-04-16T15:53:18.758Z,101959.75
2023-04-16T15:56:22.771Z,101953.31
2023-04-16T15:59:25.686Z,101957.41
2023-04-16T16:02:29.729Z,101964.31
2023-04-16T16:05:32.542Z,101957.81
2023-04-16T16:08:36.942Z,101959.19
2023-04-16T16:11:41.570Z,101960.13
2023-04-16T16:14:44.609Z,101966.59
2023-04-16T16:17:47.360Z,101963.47
2023-04-16T16:20:51.731Z,101965.78
2023-04-16T16:23:54.627Z,101965.59
2023-04-16T16:26:58.704Z,101960.22
2023-04-16T16:30:01.718Z,101962.88
2023-04-16T16:33:04.641Z,101966.44
2023-04-16T16:36:11.178Z,101972.09
2023-04-16T16:39:13.879Z,101966.81
2023-04-16T16:42:18.841Z,101983.16
2023-04-16T16:45:21.620Z,101975.03
2023-04-16T16:48:24.288Z,101984.00
2023-04-16T16:51:27.607Z,101987.59
2023-04-16T16:54:30.215Z,101985.97
2023-04-16T16:57:34.205Z,101992.16
2023-04-16T17:00:37.101Z,101990.66
2023-04-16T17:03:39.823Z,101978.53
2023-04-16T17:06:42.616Z,101988.19
2023-04-16T17:09:46.096Z,102003.09
2023-04-16T17:12:50.999Z,101992.63
2023-04-16T17:15:53.625Z,102002.31
2023-04-16T17:18:57.108Z,102000.06
2023-04-16T17:21:59.785Z,102004.69
2023-04-16T17:25:02.517Z,102005.66
2023-04-16T17:28:06.559Z,102018.06
2023-04-16T17:31:11.247Z,102023.13
2023-04-16T17:34:13.912Z,102024.00
2023-04-16T17:37:16.503Z,102021.22
2023-04-16T17:40:19.642Z,102028.84
2023-04-16T17:43:23.975Z,102025.22
2023-04-16T17:46:27.091Z,102034.78
2023-04-16T17:49:29.738Z,102034.00
2023-04-16T17:52:32.404Z,102038.78
2023-04-16T17:55:35.616Z,102039.56
2023-04-16T17:58:39.625Z,102047.69
2023-04-16T18:01:42.323Z,102047.34
2023-04-16T18:04:45.254Z,102057.91
2023-04-16T18:07:48.292Z,102050.97
2023-04-16T18:10:51.055Z,102052.81
2023-04-16T18:13:55.066Z,102050.16
2023-04-16T18:16:58.203Z,102061.72
2023-04-16T18:20:00.886Z,102063.56
2023-04-16T18:23:03.654Z,102071.69
2023-04-16T18:26:08.437Z,102067.34
2023-04-16T18:29:14.146Z,102074.63
2023-04-16T18:32:17.068Z,102076.72
2023-04-16T18:35:19.866Z,102085.28
2023-04-16T18:38:22.561Z,102085.09
2023-04-16T18:41:25.473Z,102085.72
2023-04-16T18:44:29.494Z,102086.38
2023-04-16T18:47:32.197Z,102091.69
2023-04-16T18:50:34.885Z,102098.13
2023-04-16T18:53:37.923Z,102097.25
2023-04-16T18:56:40.615Z,102101.34
2023-04-16T18:59:44.636Z,102096.66
2023-04-16T19:02:47.421Z,102101.81
2023-04-16T19:05:50.077Z,102115.88
2023-04-16T19:08:52.754Z,102115.81
2023-04-16T19:11:55.939Z,102113.31
2023-04-16T19:15:00.145Z,102114.31
2023-04-16T19:18:02.801Z,102126.59
2023-04-16T19:21:05.577Z,102121.53
2023-04-16T19:24:08.436Z,102121.88
2023-04-16T19:27:11.101Z,102123.03
2023-04-16T19:30:15.433Z,102131.41
2023-04-16T19:33:18.058Z,102121.53
2023-04-16T19:36:20.882Z,102135.16
2023-04-16T19:39:27.032Z,102130.41
2023-04-16T19:42:29.742Z,102128.63
2023-04-16T19:45:33.751Z,102132.34
2023-04-16T19:48:36.542Z,102138.41
2023-04-16T19:51:39.182Z,102138.56
2023-04-16T19:54:42.077Z,102142.00
2023-04-16T19:57:44.739Z,102141.06
2023-04-16T20:00:48.877Z,102140.22
2023-04-16T20:03:51.625Z,102140.25
2023-04-16T20:06:54.498Z,102142.13
2023-04-16T20:09:57.130Z,102134.22
2023-04-16T20:12:59.995Z,102143.88
2023-04-16T20:16:04.098Z,102148.31
2023-04-16T20:19:08.891Z,102142.03
2023-04-16T20:22:11.864Z,102144.69
2023-04-16T20:25:18.876Z,102143.91
2023-04-16T20:28:22.177Z,102148.50
2023-04-16T20:31:26.239Z,102152.81
2023-04-16T20:34:28.922Z,102141.34
2023-04-16T20:37:32.350Z,102156.31
2023-04-16T20:40:38.589Z,102159.94
2023-04-16T20:43:42.947Z,102151.19
2023-04-16T20:46:49.437Z,102148.53
2023-04-16T20:49:52.780Z,102152.13
2023-04-16T20:52:55.824Z,102151.22
2023-04-16T20:55:58.629Z,102150.34
2023-04-16T20:59:01.264Z,102150.44
2023-04-16T21:02:05.370Z,102150.44
2023-04-16T21:05:10.430Z,102153.94
2023-04-16T21:08:13.068Z,102150.47
2023-04-16T21:11:15.725Z,102159.28
2023-04-16T21:14:18.473Z,102162.03
2023-04-16T21:17:22.482Z,102160.22
2023-04-16T21:20:25.112Z,102169.06
2023-04-16T21:23:27.815Z,102162.91
2023-04-16T21:26:30.527Z,102165.59
2023-04-16T21:29:33.695Z,102167.31
2023-04-16T21:32:37.762Z,102166.56
2023-04-16T21:35:40.472Z,102163.81
2023-04-16T21:38:43.096Z,102166.56
2023-04-16T21:41:45.750Z,102159.44
2023-04-16T21:44:48.441Z,102170.88
2023-04-16T21:47:52.575Z,102171.81
2023-04-16T21:50:57.961Z,102171.97
2023-04-16T21:54:00.632Z,102174.63
2023-04-16T21:57:03.255Z,102173.75
2023-04-16T22:00:11.950Z,102170.25
2023-04-16T22:03:17.382Z,102167.63
2023-04-16T22:06:20.815Z,102173.00
2023-04-16T22:09:24.708Z,102167.72
2023-04-16T22:12:28.454Z,102165.06
2023-04-16T22:15:31.160Z,102170.50
2023-04-16T22:18:35.189Z,102165.94
2023-04-16T22:21:37.938Z,102174.81
2023-04-16T22:24:40.737Z,102173.03
2023-04-16T22:27:43.372Z,102167.75
2023-04-16T22:30:46.022Z,102168.72
2023-04-16T22:33:50.081Z,102172.31
2023-04-16T22:36:52.721Z,102173.97
2023-04-16T22:39:55.416Z,102173.16
2023-04-16T22:42:58.128Z,102177.50
2023-04-16T22:46:06.302Z,102177.50
2023-04-16T22:49:10.686Z,102169.63
2023-04-16T22:52:13.438Z,102178.44
2023-04-16T22:55:16.509Z,102176.81
2023-04-16T22:58:19.188Z,102179.47
2023-04-16T23:01:21.975Z,102176.00
2023-04-16T23:04:26.185Z,102177.72
2023-04-16T23:07:28.905Z,102176.75
2023-04-16T23:10:31.543Z,102175.09
2023-04-16T23:13:34.179Z,102172.53
2023-04-16T23:16:36.832Z,102177.78
2023-04-16T23:19:40.851Z,102183.09
2023-04-16T23:22:43.499Z,102172.75
2023-04-16T23:25:46.197Z,102171.59
2023-04-16T23:28:48.794Z,102165.56
2023-04-16T23:31:51.561Z,102174.34
2023-04-16T23:34:55.752Z,102172.72
2023-04-16T23:37:58.424Z,102167.38
2023-04-16T23:41:01.059Z,102174.44
2023-04-16T23:44:03.926Z,102174.50
2023-04-16T23:47:06.620Z,102168.34
2023-04-16T23:50:11.257Z,102161.41
2023-04-16T23:53:13.931Z,102172.81
2023-04-16T23:56:16.540Z,102167.50
2023-04-16T23:59:19.395Z,102171.03
